createdAt,value
2022-07-27T00:00:13.370Z,17.43
2022-07-27T00:02:42.194Z,17.40
2022-07-27T00:05:16.556Z,16.63
2022-07-27T00:07:46.406Z,17.72
2022-07-27T00:10:16.295Z,16.93
2022-07-27T00:12:45.770Z,16.43
2022-07-27T00:15:15.211Z,17.72
2022-07-27T00:17:44.688Z,17.69
2022-07-27T00:20:15.857Z,17.68
2022-07-27T00:22:44.956Z,17.64
2022-07-27T00:25:13.587Z,17.63
2022-07-27T00:27:45.527Z,17.57
2022-07-27T00:30:14.394Z,16.08
2022-07-27T00:32:43.399Z,17.59
2022-07-27T00:35:14.294Z,17.56
2022-07-27T00:37:43.335Z,17.53
2022-07-27T00:40:13.128Z,17.31
2022-07-27T00:42:42.220Z,17.47
2022-07-27T00:45:12.485Z,16.20
2022-07-27T00:47:41.426Z,17.30
2022-07-27T00:50:11.365Z,17.20
2022-07-27T00:52:43.751Z,16.47
2022-07-27T00:55:12.653Z,17.28
2022-07-27T00:57:59.395Z,15.80
2022-07-27T01:00:28.931Z,17.42
2022-07-27T01:02:57.846Z,16.59
2022-07-27T01:05:36.624Z,17.31
2022-07-27T01:08:15.272Z,16.08
2022-07-27T01:10:44.922Z,16.80
2022-07-27T01:13:14.435Z,17.38
2022-07-27T01:15:44.725Z,17.34
2022-07-27T01:18:27.073Z,17.31
2022-07-27T01:20:56.432Z,17.33
2022-07-27T01:23:27.167Z,17.31
2022-07-27T01:25:56.658Z,17.36
2022-07-27T01:28:25.544Z,17.33
2022-07-27T01:30:54.546Z,17.28
2022-07-27T01:33:26.976Z,16.07
2022-07-27T01:35:57.788Z,16.64
2022-07-27T01:38:28.431Z,17.29
2022-07-27T01:40:57.625Z,17.27
2022-07-27T01:43:26.553Z,17.22
2022-07-27T01:45:56.286Z,17.10
2022-07-27T01:48:25.331Z,17.17
2022-07-27T01:50:55.177Z,16.93
2022-07-27T01:53:25.202Z,16.98
2022-07-27T01:55:55.288Z,17.08
2022-07-27T01:58:24.322Z,17.04
2022-07-27T02:00:53.294Z,17.01
2022-07-27T02:03:21.990Z,17.03
2022-07-27T02:05:50.741Z,17.00
2022-07-27T02:08:19.655Z,17.03
2022-07-27T02:11:05.837Z,17.00
2022-07-27T02:13:36.019Z,17.02
2022-07-27T02:16:05.057Z,17.01
2022-07-27T02:18:45.431Z,17.04
2022-07-27T02:21:18.005Z,17.02
2022-07-27T02:23:48.376Z,16.82
2022-07-27T02:26:17.391Z,16.98
2022-07-27T02:28:47.427Z,16.73
2022-07-27T02:31:16.544Z,16.96
2022-07-27T02:33:45.606Z,16.92
2022-07-27T02:36:14.623Z,16.86
2022-07-27T02:38:43.566Z,16.77
2022-07-27T02:41:12.569Z,16.75
2022-07-27T02:43:41.347Z,16.80
2022-07-27T02:46:12.092Z,16.45
2022-07-27T02:48:40.988Z,16.86
2022-07-27T02:51:09.685Z,16.82
2022-07-27T02:53:38.802Z,16.79
2022-07-27T02:56:08.069Z,16.37
2022-07-27T02:58:37.635Z,16.85
2022-07-27T03:01:06.980Z,16.91
2022-07-27T03:03:39.294Z,16.66
2022-07-27T03:06:09.137Z,16.64
2022-07-27T03:08:39.058Z,16.87
2022-07-27T03:11:08.691Z,16.41
2022-07-27T03:13:37.672Z,16.83
2022-07-27T03:16:07.585Z,16.78
2022-07-27T03:18:38.492Z,16.76
2022-07-27T03:21:08.337Z,16.70
2022-07-27T03:23:37.395Z,16.69
2022-07-27T03:26:06.360Z,16.73
2022-07-27T03:28:35.353Z,16.75
2022-07-27T03:31:04.823Z,16.76
2022-07-27T03:33:33.822Z,16.79
2022-07-27T03:36:03.868Z,16.78
2022-07-27T03:38:32.779Z,16.81
2022-07-27T03:41:01.760Z,16.84
2022-07-27T03:43:30.928Z,16.86
2022-07-27T03:45:59.654Z,16.87
2022-07-27T03:48:28.543Z,16.65
2022-07-27T03:50:57.411Z,16.85
2022-07-27T03:53:27.574Z,15.95
2022-07-27T03:55:56.679Z,16.80
2022-07-27T03:58:25.658Z,16.80
2022-07-27T04:00:54.715Z,16.79
2022-07-27T04:03:23.380Z,15.21
2022-07-27T04:05:52.078Z,16.74
2022-07-27T04:08:21.454Z,16.74
2022-07-27T04:10:51.642Z,15.41
2022-07-27T04:13:21.839Z,16.72
2022-07-27T04:15:50.959Z,16.74
2022-07-27T04:18:20.163Z,16.75
2022-07-27T04:20:49.045Z,16.70
2022-07-27T04:23:17.786Z,16.62
2022-07-27T04:25:46.639Z,16.65
2022-07-27T04:28:16.910Z,15.18
2022-07-27T04:30:46.017Z,16.80
2022-07-27T04:33:14.606Z,16.88
2022-07-27T04:35:43.517Z,16.85
2022-07-27T04:38:12.438Z,16.74
2022-07-27T04:40:41.126Z,16.67
2022-07-27T04:43:09.723Z,16.23
2022-07-27T04:45:39.744Z,16.59
2022-07-27T04:48:09.478Z,16.33
2022-07-27T04:50:42.083Z,16.36
2022-07-27T04:53:11.163Z,16.93
2022-07-27T04:55:42.779Z,16.94
2022-07-27T04:58:12.206Z,16.91
2022-07-27T05:00:43.547Z,16.89
2022-07-27T05:03:13.057Z,16.81
2022-07-27T05:05:49.998Z,16.55
2022-07-27T05:08:19.731Z,16.77
2022-07-27T05:10:48.994Z,16.86
2022-07-27T05:13:17.773Z,16.94
2022-07-27T05:15:55.118Z,16.28
2022-07-27T05:18:25.685Z,16.96
2022-07-27T05:20:54.849Z,17.02
2022-07-27T05:23:23.802Z,17.00
2022-07-27T05:25:52.790Z,17.06
2022-07-27T05:28:21.754Z,17.23
2022-07-27T05:30:52.032Z,17.34
2022-07-27T05:33:25.645Z,17.52
2022-07-27T05:35:54.627Z,17.63
2022-07-27T05:38:23.483Z,17.52
2022-07-27T05:40:53.303Z,17.82
2022-07-27T05:43:22.549Z,18.00
2022-07-27T05:45:52.726Z,18.09
2022-07-27T05:48:21.715Z,18.23
2022-07-27T05:50:50.656Z,18.26
2022-07-27T05:53:19.691Z,18.23
2022-07-27T05:55:58.067Z,17.94
2022-07-27T05:58:28.304Z,17.88
2022-07-27T06:00:59.074Z,17.82
2022-07-27T06:03:28.387Z,17.81
2022-07-27T06:06:17.112Z,17.80
2022-07-27T06:08:45.165Z,17.67
2022-07-27T06:11:14.554Z,17.58
2022-07-27T06:13:43.401Z,17.46
2022-07-27T06:16:13.550Z,17.34
2022-07-27T06:18:42.694Z,17.27
2022-07-27T06:21:11.908Z,17.14
2022-07-27T06:23:43.703Z,16.51
2022-07-27T06:26:12.769Z,17.45
2022-07-27T06:28:43.742Z,17.65
2022-07-27T06:31:15.131Z,17.94
2022-07-27T06:33:46.155Z,17.98
2022-07-27T06:36:19.533Z,18.25
2022-07-27T06:38:48.617Z,18.30
2022-07-27T06:41:18.079Z,17.67
2022-07-27T06:43:46.988Z,18.16
2022-07-27T06:46:17.840Z,18.32
2022-07-27T06:48:46.874Z,18.29
2022-07-27T06:51:15.790Z,18.25
2022-07-27T06:53:45.555Z,17.99
2022-07-27T06:56:14.458Z,18.27
2022-07-27T06:58:43.297Z,18.08
2022-07-27T07:01:12.211Z,17.94
2022-07-27T07:03:43.060Z,17.97
2022-07-27T07:06:12.350Z,17.79
2022-07-27T07:08:41.028Z,17.93
2022-07-27T07:11:12.049Z,18.04
2022-07-27T07:13:44.760Z,18.08
2022-07-27T07:16:14.254Z,18.23
2022-07-27T07:18:47.724Z,18.37
2022-07-27T07:21:19.070Z,18.29
2022-07-27T07:23:47.831Z,17.88
2022-07-27T07:26:16.929Z,18.27
2022-07-27T07:28:47.437Z,18.31
2022-07-27T07:31:19.378Z,18.29
2022-07-27T07:33:49.513Z,18.27
2022-07-27T07:36:18.609Z,18.33
2022-07-27T07:38:48.123Z,18.50
2022-07-27T07:41:17.040Z,18.46
2022-07-27T07:43:46.135Z,18.52
2022-07-27T07:46:15.053Z,18.69
2022-07-27T07:48:44.569Z,18.66
2022-07-27T07:51:15.030Z,18.68
2022-07-27T07:53:44.007Z,18.70
2022-07-27T07:56:14.357Z,18.78
2022-07-27T07:58:43.388Z,18.84
2022-07-27T08:01:12.360Z,19.07
2022-07-27T08:03:41.025Z,19.36
2022-07-27T08:06:10.186Z,19.43
2022-07-27T08:08:40.591Z,19.70
2022-07-27T08:11:09.349Z,19.50
2022-07-27T08:13:38.345Z,20.21
2022-07-27T08:16:07.615Z,19.07
2022-07-27T08:18:36.532Z,20.79
2022-07-27T08:21:05.855Z,20.95
2022-07-27T08:23:34.754Z,21.03
2022-07-27T08:26:07.900Z,20.68
2022-07-27T08:28:37.472Z,21.43
2022-07-27T08:31:13.852Z,21.37
2022-07-27T08:33:43.529Z,21.06
2022-07-27T08:36:12.414Z,21.08
2022-07-27T08:38:41.335Z,21.32
2022-07-27T08:41:15.369Z,21.31
2022-07-27T08:43:45.777Z,20.77
2022-07-27T08:46:18.007Z,20.73
2022-07-27T08:48:47.354Z,20.82
2022-07-27T08:51:16.863Z,20.70
2022-07-27T08:53:53.072Z,20.60
2022-07-27T08:56:24.173Z,20.23
2022-07-27T08:58:52.984Z,20.30
2022-07-27T09:01:22.168Z,20.46
2022-07-27T09:03:51.019Z,19.92
2022-07-27T09:06:45.213Z,20.45
2022-07-27T09:09:23.242Z,20.22
2022-07-27T09:12:09.642Z,20.29
2022-07-27T09:14:47.593Z,20.18
2022-07-27T09:20:21.179Z,20.27
2022-07-27T09:22:53.268Z,20.31
2022-07-27T09:25:44.945Z,20.09
2022-07-27T09:28:31.461Z,19.93
2022-07-27T09:31:09.198Z,20.27
2022-07-27T09:33:46.584Z,20.19
2022-07-27T09:36:17.238Z,20.07
2022-07-27T09:39:02.599Z,19.97
2022-07-27T09:41:43.302Z,19.71
2022-07-27T09:49:53.353Z,19.26
2022-07-27T09:52:27.814Z,19.03
2022-07-27T09:55:02.968Z,19.37
2022-07-27T09:57:31.439Z,19.17
2022-07-27T10:00:14.145Z,19.32
2022-07-27T10:02:44.237Z,18.08
2022-07-27T10:08:32.164Z,19.27
2022-07-27T10:11:00.907Z,19.15
2022-07-27T10:13:33.054Z,19.19
2022-07-27T10:16:18.447Z,19.13
2022-07-27T10:19:03.157Z,19.00
2022-07-27T10:21:39.760Z,19.17
2022-07-27T10:24:12.955Z,18.48
2022-07-27T10:26:46.235Z,17.95
2022-07-27T10:29:20.459Z,19.14
2022-07-27T10:32:01.599Z,18.48
2022-07-27T10:34:40.223Z,17.31
2022-07-27T10:37:14.460Z,19.42
2022-07-27T10:39:45.077Z,19.49
2022-07-27T10:42:29.662Z,19.99
2022-07-27T10:45:08.989Z,20.39
2022-07-27T10:47:45.821Z,21.19
2022-07-27T10:50:32.406Z,21.51
2022-07-27T10:53:11.373Z,21.46
2022-07-27T10:55:51.815Z,21.75
2022-07-27T10:58:51.764Z,22.22
2022-07-27T11:01:23.812Z,22.03
2022-07-27T11:03:56.039Z,20.36
2022-07-27T11:06:55.461Z,20.71
2022-07-27T11:10:02.595Z,21.09
2022-07-27T11:12:10.979Z,21.01
2022-07-27T11:14:48.838Z,21.46
2022-07-27T11:20:12.008Z,22.63
2022-07-27T11:23:26.657Z,22.93
2022-07-27T11:25:36.578Z,21.52
2022-07-27T11:28:08.351Z,22.64
2022-07-27T11:30:37.368Z,22.39
2022-07-27T11:33:07.253Z,22.41
2022-07-27T11:35:37.190Z,22.17
2022-07-27T11:38:07.756Z,21.16
2022-07-27T11:40:56.932Z,21.91
2022-07-27T11:43:37.570Z,22.01
2022-07-27T11:46:16.082Z,20.60
2022-07-27T11:49:06.002Z,21.69
2022-07-27T11:51:38.600Z,22.61
2022-07-27T11:54:09.655Z,22.67
2022-07-27T11:56:43.144Z,22.70
2022-07-27T11:59:23.790Z,20.53
2022-07-27T12:01:56.078Z,21.59
2022-07-27T12:04:38.897Z,21.71
2022-07-27T12:07:23.066Z,22.84
2022-07-27T12:09:58.031Z,21.26
2022-07-27T12:12:29.169Z,23.00
2022-07-27T12:15:11.662Z,23.67
2022-07-27T12:17:58.391Z,23.15
2022-07-27T12:20:38.567Z,23.73
2022-07-27T12:23:10.643Z,23.29
2022-07-27T12:25:40.517Z,22.86
2022-07-27T12:28:24.842Z,22.91
2022-07-27T12:30:54.028Z,23.06
2022-07-27T12:33:34.550Z,23.72
2022-07-27T12:36:07.143Z,23.60
2022-07-27T12:38:43.448Z,23.35
2022-07-27T12:41:30.862Z,24.35
2022-07-27T12:44:08.551Z,24.70
2022-07-27T12:47:01.764Z,24.78
2022-07-27T12:49:37.022Z,22.72
2022-07-27T12:52:12.381Z,22.48
2022-07-27T12:54:44.550Z,22.27
2022-07-27T12:57:28.702Z,23.89
2022-07-27T13:00:13.490Z,23.28
2022-07-27T13:02:44.705Z,22.10
2022-07-27T13:05:22.844Z,22.37
2022-07-27T13:08:00.967Z,22.59
2022-07-27T13:10:46.268Z,20.51
2022-07-27T13:13:17.590Z,22.25
2022-07-27T13:15:48.128Z,22.00
2022-07-27T13:18:22.911Z,21.75
2022-07-27T13:21:04.039Z,20.88
2022-07-27T13:23:37.814Z,21.96
2022-07-27T13:26:16.444Z,19.83
2022-07-27T13:28:55.880Z,20.35
2022-07-27T13:32:20.155Z,21.83
2022-07-27T13:34:24.708Z,22.41
2022-07-27T13:37:07.728Z,22.80
2022-07-27T13:40:02.707Z,21.83
2022-07-27T13:42:50.119Z,20.78
2022-07-27T13:45:43.477Z,22.42
2022-07-27T13:48:18.467Z,22.39
2022-07-27T13:50:47.935Z,22.27
2022-07-27T13:53:55.030Z,22.45
2022-07-27T13:56:32.071Z,22.44
2022-07-27T13:59:08.479Z,20.39
2022-07-27T14:01:40.385Z,20.91
2022-07-27T14:04:16.293Z,22.40
2022-07-27T14:06:57.921Z,22.53
2022-07-27T14:09:46.014Z,22.76
2022-07-27T14:12:20.097Z,22.65
2022-07-27T14:15:10.099Z,20.96
2022-07-27T14:17:49.940Z,21.97
2022-07-27T14:20:18.950Z,22.55
2022-07-27T14:22:50.540Z,21.82
2022-07-27T14:25:21.835Z,22.65
2022-07-27T14:27:52.230Z,22.85
2022-07-27T14:30:31.700Z,20.85
2022-07-27T14:33:05.112Z,22.65
2022-07-27T14:35:39.876Z,22.49
2022-07-27T14:38:30.879Z,22.57
2022-07-27T14:41:04.121Z,22.25
2022-07-27T14:43:39.154Z,21.78
2022-07-27T14:46:10.064Z,21.18
2022-07-27T14:49:05.272Z,22.23
2022-07-27T14:51:32.236Z,22.03
2022-07-27T14:54:08.696Z,22.04
2022-07-27T14:57:01.022Z,20.49
2022-07-27T14:59:29.933Z,21.88
2022-07-27T15:02:13.767Z,21.92
2022-07-27T15:04:47.299Z,21.86
2022-07-27T15:07:22.148Z,20.48
2022-07-27T15:09:58.164Z,21.96
2022-07-27T15:12:39.217Z,21.70
2022-07-27T15:15:11.734Z,19.95
2022-07-27T15:17:43.678Z,21.25
2022-07-27T15:20:17.252Z,20.13
2022-07-27T15:23:03.951Z,19.74
2022-07-27T15:25:35.184Z,21.92
2022-07-27T15:28:08.267Z,21.92
2022-07-27T15:30:39.622Z,22.02
2022-07-27T15:33:12.014Z,20.98
2022-07-27T15:35:40.731Z,22.06
2022-07-27T15:38:10.940Z,22.12
2022-07-27T15:40:42.083Z,22.07
2022-07-27T15:43:22.655Z,21.99
2022-07-27T15:45:52.491Z,20.69
2022-07-27T15:48:25.314Z,20.98
2022-07-27T15:50:58.471Z,21.90
2022-07-27T15:53:33.863Z,20.99
2022-07-27T15:56:04.881Z,21.81
2022-07-27T15:58:41.271Z,21.90
2022-07-27T16:01:14.857Z,20.84
2022-07-27T16:03:54.523Z,21.69
2022-07-27T16:06:28.090Z,21.86
2022-07-27T16:08:56.418Z,19.94
2022-07-27T16:11:25.022Z,21.94
2022-07-27T16:13:53.973Z,21.84
2022-07-27T16:16:24.998Z,21.99
2022-07-27T16:18:56.843Z,20.88
2022-07-27T16:21:26.871Z,21.77
2022-07-27T16:23:58.831Z,20.48
2022-07-27T16:26:28.481Z,21.28
2022-07-27T16:29:00.343Z,22.18
2022-07-27T16:31:35.139Z,22.13
2022-07-27T16:34:14.519Z,19.91
2022-07-27T16:36:45.673Z,22.25
2022-07-27T16:39:15.068Z,22.29
2022-07-27T16:41:58.169Z,21.76
2022-07-27T16:44:28.498Z,22.22
2022-07-27T16:47:00.231Z,20.61
2022-07-27T16:49:57.458Z,20.48
2022-07-27T16:52:28.409Z,22.43
2022-07-27T16:54:59.673Z,22.54
2022-07-27T16:57:28.999Z,22.60
2022-07-27T17:00:00.237Z,22.57
2022-07-27T17:02:32.563Z,22.91
2022-07-27T17:05:05.101Z,22.20
2022-07-27T17:07:38.123Z,21.70
2022-07-27T17:10:07.827Z,22.63
2022-07-27T17:12:54.561Z,21.91
2022-07-27T17:15:25.111Z,23.02
2022-07-27T17:18:03.679Z,22.36
2022-07-27T17:20:58.871Z,21.10
2022-07-27T17:23:27.884Z,22.89
2022-07-27T17:25:59.459Z,22.82
2022-07-27T17:28:28.388Z,22.69
2022-07-27T17:30:57.233Z,22.91
2022-07-27T17:33:30.075Z,22.65
2022-07-27T17:41:59.615Z,22.81
2022-07-27T17:44:32.365Z,20.74
2022-07-27T17:47:02.357Z,23.45
2022-07-27T17:49:34.003Z,23.30
2022-07-27T17:52:12.314Z,21.39
2022-07-27T17:54:44.160Z,22.98
2022-07-27T17:57:13.152Z,23.08
2022-07-27T17:59:44.917Z,22.77
2022-07-27T18:02:16.752Z,22.80
2022-07-27T18:04:45.909Z,22.93
2022-07-27T18:07:15.704Z,22.58
2022-07-27T18:09:46.899Z,21.06
2022-07-27T18:12:21.451Z,22.75
2022-07-27T18:15:10.340Z,22.20
2022-07-27T18:17:42.720Z,22.32
2022-07-27T18:20:12.659Z,21.08
2022-07-27T18:22:43.040Z,21.25
2022-07-27T18:25:12.450Z,20.43
2022-07-27T18:27:44.929Z,21.41
2022-07-27T18:30:14.208Z,19.21
2022-07-27T18:32:45.329Z,20.81
2022-07-27T18:35:14.949Z,20.48
2022-07-27T18:37:45.692Z,18.40
2022-07-27T18:40:15.316Z,18.60
2022-07-27T18:42:44.416Z,19.82
2022-07-27T18:45:13.482Z,19.69
2022-07-27T18:47:49.094Z,19.50
2022-07-27T18:50:18.541Z,19.37
2022-07-27T18:52:48.462Z,17.59
2022-07-27T18:55:22.679Z,19.08
2022-07-27T18:57:55.699Z,18.91
2022-07-27T19:00:25.380Z,18.78
2022-07-27T19:02:58.713Z,17.38
2022-07-27T19:05:40.509Z,18.56
2022-07-27T19:08:14.322Z,18.18
2022-07-27T19:10:46.427Z,18.35
2022-07-27T19:13:16.735Z,18.22
2022-07-27T19:15:45.917Z,18.12
2022-07-27T19:18:14.802Z,17.95
2022-07-27T19:20:43.855Z,17.85
2022-07-27T19:23:14.019Z,17.75
2022-07-27T19:25:43.649Z,17.65
2022-07-27T19:28:15.233Z,17.54
2022-07-27T19:30:44.417Z,17.45
2022-07-27T19:33:13.538Z,17.38
2022-07-27T19:35:45.763Z,17.30
2022-07-27T19:38:18.187Z,17.20
2022-07-27T19:40:47.668Z,17.07
2022-07-27T19:43:19.340Z,15.79
2022-07-27T19:45:50.739Z,16.87
2022-07-27T19:48:22.527Z,16.89
2022-07-27T19:50:51.654Z,16.83
2022-07-27T19:53:25.973Z,16.79
2022-07-27T19:55:56.221Z,16.69
2022-07-27T19:58:25.637Z,16.58
2022-07-27T20:00:55.841Z,16.47
2022-07-27T20:03:26.717Z,16.36
2022-07-27T20:05:55.879Z,16.25
2022-07-27T20:08:26.155Z,16.19
2022-07-27T20:10:55.197Z,16.03
2022-07-27T20:13:24.168Z,15.88
2022-07-27T20:15:53.281Z,15.74
2022-07-27T20:18:24.807Z,15.63
2022-07-27T20:20:55.072Z,15.52
2022-07-27T20:23:37.552Z,15.41
2022-07-27T20:26:19.272Z,15.33
2022-07-27T20:28:50.047Z,15.25
2022-07-27T20:31:19.677Z,15.18
2022-07-27T20:33:48.692Z,15.14
2022-07-27T20:36:20.715Z,15.10
2022-07-27T20:38:51.978Z,15.07
2022-07-27T20:41:20.915Z,15.02
2022-07-27T20:43:49.787Z,14.98
2022-07-27T20:46:21.801Z,14.93
2022-07-27T20:48:54.949Z,14.86
2022-07-27T20:51:30.077Z,14.81
2022-07-27T20:54:00.297Z,14.78
2022-07-27T20:56:29.369Z,14.72
2022-07-27T20:59:03.430Z,14.68
2022-07-27T21:01:38.044Z,14.65
2022-07-27T21:04:10.407Z,14.60
2022-07-27T21:06:39.628Z,14.57
2022-07-27T21:09:13.377Z,14.54
2022-07-27T21:11:42.935Z,14.49
2022-07-27T21:14:15.041Z,14.37
2022-07-27T21:16:44.200Z,14.31
2022-07-27T21:19:13.544Z,14.28
2022-07-27T21:21:43.157Z,14.26
2022-07-27T21:24:18.162Z,14.24
2022-07-27T21:26:49.902Z,14.25
2022-07-27T21:29:20.408Z,13.30
2022-07-27T21:31:51.793Z,12.49
2022-07-27T21:34:24.629Z,12.49
2022-07-27T21:36:55.385Z,14.18
2022-07-27T21:39:36.695Z,14.15
2022-07-27T21:42:10.899Z,14.16
2022-07-27T21:44:42.639Z,14.16
2022-07-27T21:47:14.247Z,14.15
2022-07-27T21:49:53.721Z,14.11
2022-07-27T21:52:28.621Z,14.08
2022-07-27T21:55:08.859Z,14.06
2022-07-27T21:57:42.101Z,14.04
2022-07-27T22:00:15.029Z,14.03
2022-07-27T22:02:48.906Z,13.20
2022-07-27T22:05:18.194Z,13.95
2022-07-27T22:07:49.986Z,13.91
2022-07-27T22:10:26.369Z,13.88
2022-07-27T22:12:55.362Z,13.88
2022-07-27T22:15:27.572Z,12.71
2022-07-27T22:17:57.942Z,13.82
2022-07-27T22:20:28.832Z,13.80
2022-07-27T22:22:59.442Z,12.50
2022-07-27T22:25:35.745Z,12.65
2022-07-27T22:28:05.036Z,13.65
2022-07-27T22:30:40.794Z,12.39
2022-07-27T22:33:14.995Z,13.59
2022-07-27T22:35:43.985Z,13.54
2022-07-27T22:38:15.558Z,13.36
2022-07-27T22:40:45.613Z,12.77
2022-07-27T22:43:18.761Z,12.57
2022-07-27T22:45:53.870Z,13.35
2022-07-27T22:48:31.664Z,13.27
2022-07-27T22:51:00.580Z,13.20
2022-07-27T22:53:31.807Z,13.15
2022-07-27T22:56:05.127Z,13.08
2022-07-27T22:58:34.115Z,13.04
2022-07-27T23:01:05.057Z,13.01
2022-07-27T23:03:48.030Z,12.97
2022-07-27T23:06:23.953Z,12.90
2022-07-27T23:08:54.759Z,12.87
2022-07-27T23:11:25.728Z,12.84
2022-07-27T23:13:57.626Z,12.85
2022-07-27T23:16:29.452Z,12.83
2022-07-27T23:18:58.479Z,12.79
2022-07-27T23:21:31.698Z,12.77
2022-07-27T23:24:03.230Z,12.73
2022-07-27T23:26:51.373Z,12.71
2022-07-27T23:29:27.619Z,12.65
2022-07-27T23:31:59.357Z,12.61
2022-07-27T23:34:36.349Z,12.58
2022-07-27T23:37:05.285Z,12.57
2022-07-27T23:39:34.202Z,12.59
2022-07-27T23:42:12.818Z,12.74
2022-07-27T23:44:43.575Z,12.83
2022-07-27T23:47:19.708Z,12.81
2022-07-27T23:49:55.013Z,12.70
2022-07-27T23:52:24.037Z,12.62
2022-07-27T23:54:54.885Z,12.54
2022-07-27T23:57:39.060Z,12.42
